Time;durP1;ratioP1;P1;durP2;ratioP2;P2;SDS_P1;SDS_P2;PMS_P1;PMS_P2;Temp;Humidity;BMP_temperature;BMP_pressure;BME280_temperature;BME280_humidity;BME280_pressure;Samples;Min_cycle;Max_cycle;Signal;HPM_P1;HPM_P2
2021/10/18 00:00:25;;;;;;;;;;;;;;;5.41;94.62;97517.97;30001;983;1872;-64
2021/10/18 00:00:55;;;;;;;;;;;;;;;5.39;94.51;97515.53;30001;983;1858;-58
2021/10/18 00:01:26;;;;;;;;;;;;;;;5.38;94.48;97513.09;30001;983;1885;-58
2021/10/18 00:01:57;;;;;;;;;;;;;;;5.38;94.89;97511.22;30001;983;1881;-59
2021/10/18 00:02:28;;;;;;;;;;;;;;;5.38;94.85;97519.28;30001;983;1885;-59
2021/10/18 00:02:59;;;;;;;;;;;;;;;5.41;94.78;97514.47;30001;982;1881;-59
2021/10/18 00:03:29;;;;;;;;;;;;;;;5.43;94.73;97515.06;30001;982;1885;-59
2021/10/18 00:04:00;;;;;;;;;;;;;;;5.44;94.44;97514.81;30001;982;1881;-59
2021/10/18 00:04:31;;;;;;;;;;;;;;;5.45;94.19;97521.00;30001;982;1868;-59
2021/10/18 00:05:03;;;;;;;;;;;;;;;5.42;94.01;97518.81;30001;982;1868;-60
2021/10/18 00:05:34;;;;;;;;;;;;;;;5.41;93.75;97520.69;30001;983;1880;-59
2021/10/18 00:06:05;;;;;;;;;;;;;;;5.41;93.62;97519.84;30001;983;1863;-60
2021/10/18 00:06:35;;;;;;;;;;;;;;;5.39;93.69;97523.59;30001;983;1871;-62
2021/10/18 00:07:06;;;;;;;;;;;;;;;5.38;93.72;97515.78;30001;983;1876;-60
2021/10/18 00:07:37;;;;;;;;;;;;;;;5.38;93.70;97521.97;30001;983;1880;-58
2021/10/18 00:08:08;;;;;;;;;;;;;;;5.37;93.79;97514.16;30001;983;1876;-60
2021/10/18 00:08:39;;;;;;;;;;;;;;;5.38;94.16;97527.38;30001;983;1881;-59
2021/10/18 00:09:10;;;;;;;;;;;;;;;5.37;93.91;97528.41;30001;983;1863;-59
2021/10/18 00:09:41;;;;;;;;;;;;;;;5.38;94.18;97526.53;30001;983;1872;-60
2021/10/18 00:10:13;;;;;;;;;;;;;;;5.38;94.23;97516.59;30001;983;1876;-61
2021/10/18 00:10:44;;;;;;;;;;;;;;;5.38;94.39;97524.66;30001;982;1868;-59
2021/10/18 00:11:15;;;;;;;;;;;;;;;5.39;94.28;97530.87;30001;982;1867;-59
2021/10/18 00:11:46;;;;;;;;;;;;;;;5.41;94.05;97526.06;30001;982;1881;-60
2021/10/18 00:12:17;;;;;;;;;;;;;;;5.42;94.12;97526.88;30001;982;1876;-59
2021/10/18 00:12:47;;;;;;;;;;;;;;;5.39;94.37;97529.00;30001;983;1880;-60
2021/10/18 00:13:19;;;;;;;;;;;;;;;5.38;94.38;97529.25;30001;983;1876;-59
2021/10/18 00:13:50;;;;;;;;;;;;;;;5.38;94.34;97532.75;30001;983;1880;-60
2021/10/18 00:14:20;;;;;;;;;;;;;;;5.38;94.62;97524.66;30001;983;1876;-59
2021/10/18 00:14:51;;;;;;;;;;;;;;;5.40;94.24;97529.81;30001;986;1872;-60
2021/10/18 00:15:23;;;;;;;;;;;;;;;5.39;94.26;97529.00;30001;970;1884;-59
2021/10/18 00:15:54;;;;;;;;;;;;;;;5.39;94.55;97537.06;30001;983;1867;-59
2021/10/18 00:16:25;;;;;;;;;;;;;;;5.39;94.62;97536.25;30001;983;1880;-59
2021/10/18 00:16:56;;;;;;;;;;;;;;;5.39;94.43;97537.06;30001;983;1876;-59
2021/10/18 00:17:27;;;;;;;;;;;;;;;5.41;94.68;97536.00;30001;983;1881;-61
2021/10/18 00:17:59;;;;;;;;;;;;;;;5.41;94.47;97534.13;30001;982;1876;-61
2021/10/18 00:18:30;;;;;;;;;;;;;;;5.39;94.37;97534.38;30001;982;1868;-59
2021/10/18 00:19:02;;;;;;;;;;;;;;;5.36;94.74;97531.34;30001;982;1868;-59
2021/10/18 00:19:33;;;;;;;;;;;;;;;5.35;94.78;97537.78;30001;982;1868;-60
2021/10/18 00:20:05;;;;;;;;;;;;;;;5.34;94.66;97536.97;30001;982;1868;-59
2021/10/18 00:20:36;;;;;;;;;;;;;;;5.35;94.95;97540.47;30001;983;1880;-59
2021/10/18 00:21:07;;;;;;;;;;;;;;;5.37;94.61;97547.25;30001;983;1876;-60
2021/10/18 00:21:38;;;;;;;;;;;;;;;5.38;95.02;97548.88;30001;983;1880;-59
2021/10/18 00:22:09;;;;;;;;;;;;;;;5.38;94.75;97546.19;30001;983;1876;-59
2021/10/18 00:22:40;;;;;;;;;;;;;;;5.41;95.03;97552.97;30001;983;1880;-59
2021/10/18 00:23:11;;;;;;;;;;;;;;;5.41;94.75;97552.16;30001;983;1876;-60
2021/10/18 00:23:41;;;;;;;;;;;;;;;5.42;94.98;97549.22;30001;983;1880;-59
2021/10/18 00:24:13;;;;;;;;;;;;;;;5.42;94.81;97551.09;30001;983;1876;-59
2021/10/18 00:24:44;;;;;;;;;;;;;;;5.43;94.73;97550.03;30001;983;1868;-57
2021/10/18 00:25:15;;;;;;;;;;;;;;;5.45;95.01;97547.91;30001;983;1868;-59
2021/10/18 00:25:46;;;;;;;;;;;;;;;5.44;94.77;97552.50;30001;982;1881;-59
2021/10/18 00:26:17;;;;;;;;;;;;;;;5.44;94.75;97547.09;30001;982;1876;-59
2021/10/18 00:26:47;;;;;;;;;;;;;;;5.47;94.94;97553.87;30001;982;1881;-60
2021/10/18 00:27:18;;;;;;;;;;;;;;;5.47;94.67;97548.50;30001;982;1877;-60
2021/10/18 00:27:49;;;;;;;;;;;;;;;5.48;94.93;97552.81;30001;982;1881;-60
2021/10/18 00:28:20;;;;;;;;;;;;;;;5.48;94.97;97553.63;30001;983;1863;-60
2021/10/18 00:28:51;;;;;;;;;;;;;;;5.47;94.85;97551.19;30001;983;1872;-59
2021/10/18 00:29:22;;;;;;;;;;;;;;;5.47;94.72;97549.31;30001;983;1876;-59
2021/10/18 00:29:53;;;;;;;;;;;;;;;5.48;94.93;97547.44;30001;983;1880;-59
2021/10/18 00:30:23;;;;;;;;;;;;;;;5.47;94.81;97556.56;30001;983;1863;-59
2021/10/18 00:30:54;;;;;;;;;;;;;;;5.45;94.95;97559.50;30001;983;1872;-60
2021/10/18 00:31:25;;;;;;;;;;;;;;;5.43;94.79;97550.84;30001;983;1876;-61
2021/10/18 00:31:56;;;;;;;;;;;;;;;5.43;94.92;97555.41;30001;983;1881;-59
2021/10/18 00:32:27;;;;;;;;;;;;;;;5.45;94.83;97556.00;30001;983;1876;-59
2021/10/18 00:32:58;;;;;;;;;;;;;;;5.45;95.05;97553.31;30001;965;1898;-60
2021/10/18 00:33:29;;;;;;;;;;;;;;;5.45;94.94;97554.13;30001;982;1876;-60
2021/10/18 00:33:59;;;;;;;;;;;;;;;5.44;94.92;97555.19;30001;982;1881;-59
2021/10/18 00:34:30;;;;;;;;;;;;;;;5.44;95.07;97551.66;30001;982;1877;-61
2021/10/18 00:35:01;;;;;;;;;;;;;;;5.44;95.03;97548.97;30001;982;1881;-60
2021/10/18 00:35:32;;;;;;;;;;;;;;;5.46;95.33;97560.31;30001;983;1863;-60
2021/10/18 00:36:03;;;;;;;;;;;;;;;5.47;95.05;97546.63;30001;983;1871;-59
2021/10/18 00:36:34;;;;;;;;;;;;;;;5.50;94.97;97551.50;30001;983;1876;-59
2021/10/18 00:37:05;;;;;;;;;;;;;;;5.51;95.18;97546.94;30001;983;1880;-59
2021/10/18 00:37:36;;;;;;;;;;;;;;;5.49;94.88;97543.69;30001;983;1876;-59
2021/10/18 00:38:06;;;;;;;;;;;;;;;5.50;95.21;97551.50;30001;983;1880;-59
2021/10/18 00:38:37;;;;;;;;;;;;;;;5.51;94.76;97546.94;30001;983;1876;-59
2021/10/18 00:39:08;;;;;;;;;;;;;;;5.51;95.04;97546.94;30001;983;1881;-61
2021/10/18 00:39:39;;;;;;;;;;;;;;;5.52;94.83;97548.59;30001;982;1863;-60
2021/10/18 00:40:11;;;;;;;;;;;;;;;5.53;95.07;97540.25;30001;982;1872;-59
2021/10/18 00:40:42;;;;;;;;;;;;;;;5.55;94.98;97554.25;30001;982;1877;-59
2021/10/18 00:41:13;;;;;;;;;;;;;;;5.54;94.97;97554.53;30001;982;1881;-60
2021/10/18 00:41:44;;;;;;;;;;;;;;;5.53;94.81;97548.34;30001;982;1877;-60
2021/10/18 00:42:15;;;;;;;;;;;;;;;5.51;94.96;97547.75;30001;982;1881;-60
2021/10/18 00:42:46;;;;;;;;;;;;;;;5.49;94.80;97543.69;30001;982;1877;-62
2021/10/18 00:43:17;;;;;;;;;;;;;;;5.49;94.92;97544.50;30001;983;1867;-60
2021/10/18 00:43:49;;;;;;;;;;;;;;;5.49;94.79;97546.37;30001;983;1867;-60
2021/10/18 00:44:21;;;;;;;;;;;;;;;5.49;94.82;97549.06;30001;983;1867;-59
2021/10/18 00:44:51;;;;;;;;;;;;;;;5.48;94.94;97547.44;30001;983;1867;-60
2021/10/18 00:45:22;;;;;;;;;;;;;;;5.50;94.86;97550.69;30001;983;1880;-59
2021/10/18 00:45:53;;;;;;;;;;;;;;;5.50;94.86;97550.69;30001;983;1876;-59
2021/10/18 00:46:24;;;;;;;;;;;;;;;5.51;95.05;97557.72;30001;983;1881;-59
2021/10/18 00:46:55;;;;;;;;;;;;;;;5.52;94.77;97551.28;30001;983;1876;-59
2021/10/18 00:47:26;;;;;;;;;;;;;;;5.51;95.08;97550.47;30001;982;1881;-60
2021/10/18 00:47:57;;;;;;;;;;;;;;;5.51;94.73;97549.63;30001;982;1876;-59
2021/10/18 00:48:28;;;;;;;;;;;;;;;5.50;94.67;97551.50;30001;982;1868;-59
2021/10/18 00:48:59;;;;;;;;;;;;;;;5.51;95.15;97546.94;30001;982;1855;-61
2021/10/18 00:49:30;;;;;;;;;;;;;;;5.52;95.19;97552.09;30001;982;1881;-59
2021/10/18 00:50:01;;;;;;;;;;;;;;;5.52;94.78;97549.41;30001;982;1877;-59
2021/10/18 00:50:32;;;;;;;;;;;;;;;5.52;94.91;97548.59;30001;983;1880;-60
2021/10/18 00:51:04;;;;;;;;;;;;;;;5.51;94.73;97547.75;30001;983;1876;-60
2021/10/18 00:51:34;;;;;;;;;;;;;;;5.51;94.79;97553.16;30001;983;1867;-60
2021/10/18 00:52:05;;;;;;;;;;;;;;;5.51;94.75;97547.75;30001;983;1867;-60
2021/10/18 00:52:37;;;;;;;;;;;;;;;5.49;94.58;97544.50;30001;983;1880;-60
2021/10/18 00:53:08;;;;;;;;;;;;;;;5.50;94.68;97550.69;30001;983;1876;-59
2021/10/18 00:53:39;;;;;;;;;;;;;;;5.48;94.70;97548.25;30001;983;1880;-60
2021/10/18 00:54:10;;;;;;;;;;;;;;;5.46;94.57;97550.38;30001;983;1876;-61
2021/10/18 00:54:41;;;;;;;;;;;;;;;5.46;94.74;97547.69;30001;983;1881;-60
2021/10/18 00:55:13;;;;;;;;;;;;;;;5.47;94.75;97548.50;30001;982;1876;-59
2021/10/18 00:55:46;;;;;;;;;;;;;;;5.48;94.91;97550.12;30001;982;1868;-62
2021/10/18 00:56:17;;;;;;;;;;;;;;;5.46;94.81;97547.69;30001;982;1868;-61
2021/10/18 00:56:48;;;;;;;;;;;;;;;5.48;95.08;97552.81;30001;982;1881;-60
2021/10/18 00:57:19;;;;;;;;;;;;;;;5.47;94.92;97551.19;30001;982;1877;-59
2021/10/18 00:57:50;;;;;;;;;;;;;;;5.48;94.89;97547.44;30001;982;1881;-59
2021/10/18 00:58:25;;;;;;;;;;;;;;;5.47;94.80;97546.63;30001;983;1876;-60
2021/10/18 00:58:58;;;;;;;;;;;;;;;5.48;94.77;97550.12;30001;983;1880;-59
2021/10/18 00:59:30;;;;;;;;;;;;;;;5.49;94.80;97554.44;30001;983;1876;-59
2021/10/18 01:00:01;;;;;;;;;;;;;;;5.49;94.82;97554.44;30001;983;1880;-58
2021/10/18 01:00:33;;;;;;;;;;;;;;;5.48;94.87;97555.50;30001;983;1863;-60
2021/10/18 01:01:04;;;;;;;;;;;;;;;5.48;95.08;97558.19;30001;983;1872;-61
2021/10/18 01:01:35;;;;;;;;;;;;;;;5.47;95.16;97554.69;30001;983;1876;-59
2021/10/18 01:02:06;;;;;;;;;;;;;;;5.47;95.02;97551.19;30001;983;1881;-59
2021/10/18 01:02:37;;;;;;;;;;;;;;;5.46;95.05;97554.94;30001;982;1876;-59
2021/10/18 01:03:08;;;;;;;;;;;;;;;5.45;95.22;97553.31;30001;982;1881;-59
2021/10/18 01:03:39;;;;;;;;;;;;;;;5.48;94.95;97558.19;30001;982;1876;-61
2021/10/18 01:04:10;;;;;;;;;;;;;;;5.49;95.19;97565.22;30001;982;1881;-60
2021/10/18 01:04:42;;;;;;;;;;;;;;;5.49;95.01;97565.22;30001;982;1877;-60
2021/10/18 01:05:14;;;;;;;;;;;;;;;5.51;95.12;97560.41;30001;983;1880;-60
2021/10/18 01:05:45;;;;;;;;;;;;;;;5.49;94.97;97554.44;30001;983;1863;-60
2021/10/18 01:06:19;;;;;;;;;;;;;;;5.49;95.00;97560.66;30001;983;1871;-60
2021/10/18 01:06:51;;;;;;;;;;;;;;;5.51;94.95;97563.09;30001;983;1876;-62
2021/10/18 01:07:22;;;;;;;;;;;;;;;5.51;95.06;97563.91;30001;983;1880;-60
2021/10/18 01:07:53;;;;;;;;;;;;;;;5.51;95.14;97557.72;30001;983;1876;-60
2021/10/18 01:08:25;;;;;;;;;;;;;;;5.53;94.90;97560.97;30001;983;1868;-59
2021/10/18 01:08:55;;;;;;;;;;;;;;;5.52;94.98;97570.13;30001;983;1868;-60
2021/10/18 01:09:26;;;;;;;;;;;;;;;5.52;94.96;97556.66;30001;983;1881;-60
2021/10/18 01:09:58;;;;;;;;;;;;;;;5.54;95.00;97562.63;30001;982;1876;-59
2021/10/18 01:10:28;;;;;;;;;;;;;;;5.51;95.19;97563.09;30001;982;1881;-60
2021/10/18 01:10:59;;;;;;;;;;;;;;;5.49;95.02;97559.84;30001;982;1876;-60
2021/10/18 01:11:30;;;;;;;;;;;;;;;5.49;95.17;97559.84;30001;982;1881;-60
2021/10/18 01:12:01;;;;;;;;;;;;;;;5.48;94.99;97553.63;30001;982;1877;-61
2021/10/18 01:12:32;;;;;;;;;;;;;;;5.48;94.92;97556.31;30001;983;1867;-60
2021/10/18 01:13:04;;;;;;;;;;;;;;;5.48;94.95;97558.19;30001;983;1867;-60
2021/10/18 01:13:35;;;;;;;;;;;;;;;5.48;95.33;97552.81;30001;983;1880;-59
2021/10/18 01:14:07;;;;;;;;;;;;;;;5.50;94.92;97556.09;30001;983;1876;-60
2021/10/18 01:14:38;;;;;;;;;;;;;;;5.51;95.17;97557.72;30001;983;1881;-60
2021/10/18 01:15:09;;;;;;;;;;;;;;;5.52;94.98;97562.03;30001;983;1876;-59
2021/10/18 01:15:40;;;;;;;;;;;;;;;5.53;95.26;97552.91;30001;983;1880;-59
2021/10/18 01:16:11;;;;;;;;;;;;;;;5.53;95.20;97553.72;30001;983;1876;-59
2021/10/18 01:16:42;;;;;;;;;;;;;;;5.54;95.11;97554.53;30001;983;1881;-59
2021/10/18 01:17:12;;;;;;;;;;;;;;;5.53;95.09;97555.59;30001;983;1876;-60
2021/10/18 01:17:43;;;;;;;;;;;;;;;5.53;95.02;97556.41;30001;982;1868;-59
2021/10/18 01:18:14;;;;;;;;;;;;;;;5.52;94.93;97549.41;30001;982;1868;-60
2021/10/18 01:18:45;;;;;;;;;;;;;;;5.53;94.90;97552.91;30001;982;1881;-59
2021/10/18 01:19:17;;;;;;;;;;;;;;;5.52;94.84;97546.72;30001;982;1877;-59
2021/10/18 01:19:49;;;;;;;;;;;;;;;5.53;94.70;97552.91;30001;982;1881;-60
2021/10/18 01:20:30;;;;;;;;;;;;;;;5.53;94.83;97550.22;30001;983;1876;-59
2021/10/18 01:21:01;;;;;;;;;;;;;;;5.53;94.99;97550.22;30001;983;1880;-60
2021/10/18 01:21:32;;;;;;;;;;;;;;;5.53;94.95;97555.59;30001;983;1876;-60
2021/10/18 01:22:03;;;;;;;;;;;;;;;5.54;95.19;97552.66;30001;973;1885;-59
2021/10/18 01:22:34;;;;;;;;;;;;;;;5.54;95.20;97551.84;30001;983;1854;-60
2021/10/18 01:23:07;;;;;;;;;;;;;;;5.54;95.29;97552.66;30001;983;1881;-60
2021/10/18 01:23:37;;;;;;;;;;;;;;;5.54;95.08;97551.84;30001;983;1877;-59
2021/10/18 01:24:09;;;;;;;;;;;;;;;5.54;94.92;97552.66;30001;983;1881;-59
2021/10/18 01:24:40;;;;;;;;;;;;;;;5.54;95.07;97552.66;30001;983;1877;-60
2021/10/18 01:25:11;;;;;;;;;;;;;;;5.56;95.25;97560.47;30001;982;1881;-60
2021/10/18 01:25:42;;;;;;;;;;;;;;;5.56;95.03;97558.59;30001;982;1876;-60
2021/10/18 01:26:12;;;;;;;;;;;;;;;5.56;94.95;97560.47;30001;982;1881;-59
2021/10/18 01:26:43;;;;;;;;;;;;;;;5.55;94.98;97562.34;30001;982;1877;-60
2021/10/18 01:27:14;;;;;;;;;;;;;;;5.56;95.12;97561.28;30001;982;1868;-60
2021/10/18 01:27:45;;;;;;;;;;;;;;;5.56;95.06;97550.50;30001;983;1867;-60
2021/10/18 01:28:16;;;;;;;;;;;;;;;5.57;95.22;97556.72;30001;983;1880;-60
2021/10/18 01:28:46;;;;;;;;;;;;;;;5.57;95.10;97562.09;30001;983;1876;-59
2021/10/18 01:29:17;;;;;;;;;;;;;;;5.56;95.24;97555.09;30001;983;1880;-59
2021/10/18 01:29:48;;;;;;;;;;;;;;;5.55;95.17;97553.44;30001;983;1876;-59
2021/10/18 01:30:19;;;;;;;;;;;;;;;5.53;95.21;97552.91;30001;983;1881;-58
2021/10/18 01:30:50;;;;;;;;;;;;;;;5.53;95.38;97551.03;30001;983;1863;-58
2021/10/18 01:31:21;;;;;;;;;;;;;;;5.54;95.16;97551.84;30001;983;1872;-60
2021/10/18 01:31:52;;;;;;;;;;;;;;;5.54;95.28;97539.19;30001;983;1863;-59
2021/10/18 01:32:22;;;;;;;;;;;;;;;5.54;95.12;97536.50;30001;983;1872;-59
2021/10/18 01:32:54;;;;;;;;;;;;;;;5.55;94.99;97538.13;30001;982;1876;-58
2021/10/18 01:33:24;;;;;;;;;;;;;;;5.55;95.41;97542.69;30001;982;1881;-58
2021/10/18 01:33:55;;;;;;;;;;;;;;;5.56;94.91;97538.94;30001;982;1877;-60
2021/10/18 01:34:27;;;;;;;;;;;;;;;5.55;95.05;97543.50;30001;982;1881;-59
2021/10/18 01:34:57;;;;;;;;;;;;;;;5.55;94.98;97543.50;30001;982;1877;-59
2021/10/18 01:35:28;;;;;;;;;;;;;;;5.56;95.34;97544.31;30001;983;1880;-59
2021/10/18 01:36:00;;;;;;;;;;;;;;;5.56;95.06;97542.44;30001;983;1876;-59
2021/10/18 01:36:32;;;;;;;;;;;;;;;5.58;95.29;97547.56;30001;983;1867;-60
2021/10/18 01:37:04;;;;;;;;;;;;;;;5.58;95.10;97539.50;30002;983;1774;-59
2021/10/18 01:37:35;;;;;;;;;;;;;;;5.58;95.25;97545.69;30002;983;1880;-59
2021/10/18 01:38:06;;;;;;;;;;;;;;;5.59;95.07;97541.94;30002;983;1876;-59
2021/10/18 01:38:37;;;;;;;;;;;;;;;5.58;95.42;97547.56;30002;983;1881;-60
2021/10/18 01:39:08;;;;;;;;;;;;;;;5.56;95.04;97541.63;30002;983;1876;-59
2021/10/18 01:39:38;;;;;;;;;;;;;;;5.56;95.27;97538.94;30002;982;1881;-59
2021/10/18 01:40:11;;;;;;;;;;;;;;;5.55;95.10;97548.88;30002;982;1876;-60
2021/10/18 01:40:42;;;;;;;;;;;;;;;5.57;95.16;97545.94;30002;982;1881;-59
2021/10/18 01:41:13;;;;;;;;;;;;;;;5.57;95.38;97540.56;30002;982;1864;-59
2021/10/18 01:41:44;;;;;;;;;;;;;;;5.57;95.14;97546.75;30002;982;1872;-60
2021/10/18 01:42:14;;;;;;;;;;;;;;;5.57;95.20;97545.94;30002;982;1877;-61
2021/10/18 01:42:45;;;;;;;;;;;;;;;5.58;95.41;97542.19;30002;983;1880;-59
2021/10/18 01:43:16;;;;;;;;;;;;;;;5.58;95.32;97542.19;30002;983;1876;-60
2021/10/18 01:43:47;;;;;;;;;;;;;;;5.59;95.41;97543.81;30002;983;1880;-61
2021/10/18 01:44:18;;;;;;;;;;;;;;;5.59;95.43;97543.81;30002;983;1863;-59
2021/10/18 01:44:49;;;;;;;;;;;;;;;5.58;95.41;97544.88;30002;983;1872;-60
2021/10/18 01:45:21;;;;;;;;;;;;;;;5.58;95.22;97539.50;30002;983;1876;-60
2021/10/18 01:45:51;;;;;;;;;;;;;;;5.56;95.36;97545.13;30002;983;1880;-60
2021/10/18 01:46:22;;;;;;;;;;;;;;;5.54;95.00;97538.38;30002;983;1876;-60
2021/10/18 01:46:53;;;;;;;;;;;;;;;5.53;95.11;97545.66;30002;982;1868;-60
2021/10/18 01:47:26;;;;;;;;;;;;;;;5.55;95.32;97542.69;30002;982;1868;-59
2021/10/18 01:47:57;;;;;;;;;;;;;;;5.55;95.22;97542.69;30002;982;1881;-60
2021/10/18 01:48:28;;;;;;;;;;;;;;;5.56;95.45;97538.94;30002;982;1877;-59
2021/10/18 01:48:59;;;;;;;;;;;;;;;5.55;95.44;97532.72;30002;982;1881;-59
2021/10/18 01:49:30;;;;;;;;;;;;;;;5.57;95.15;97532.50;30002;982;1877;-60
2021/10/18 01:50:05;;;;;;;;;;;;;;;5.57;95.28;97543.25;30002;982;1881;-59
2021/10/18 01:50:40;;;;;;;;;;;;;;;5.59;95.54;97543.81;30002;983;1863;-59
2021/10/18 01:51:11;;;;;;;;;;;;;;;5.60;95.52;97540.06;30002;983;1769;-60
2021/10/18 01:51:42;;;;;;;;;;;;;;;5.61;95.67;97542.53;30002;983;1876;-60
2021/10/18 01:52:13;;;;;;;;;;;;;;;5.63;95.66;97542.28;30002;983;1880;-59
2021/10/18 01:52:45;;;;;;;;;;;;;;;5.63;95.46;97539.59;30002;983;1863;-60
2021/10/18 01:53:15;;;;;;;;;;;;;;;5.63;95.60;97539.59;30002;983;1872;-59
2021/10/18 01:53:46;;;;;;;;;;;;;;;5.63;95.48;97539.59;30002;983;1876;-59
2021/10/18 01:54:17;;;;;;;;;;;;;;;5.63;95.46;97544.97;30002;982;1881;-60
2021/10/18 01:54:48;;;;;;;;;;;;;;;5.64;95.44;97543.91;30002;982;1876;-59
2021/10/18 01:55:20;;;;;;;;;;;;;;;5.65;95.36;97537.47;30002;982;1881;-59
2021/10/18 01:55:51;;;;;;;;;;;;;;;5.66;95.79;97548.00;30002;982;1876;-59
2021/10/18 01:56:22;;;;;;;;;;;;;;;5.64;95.65;97549.28;30002;982;1868;-58
2021/10/18 01:56:53;;;;;;;;;;;;;;;5.63;95.32;97548.47;30002;982;1868;-60
2021/10/18 01:57:24;;;;;;;;;;;;;;;5.63;95.58;97544.97;30002;982;1881;-59
2021/10/18 01:57:55;;;;;;;;;;;;;;;5.63;95.42;97550.34;30002;983;1876;-60
2021/10/18 01:58:26;;;;;;;;;;;;;;;5.60;95.44;97546.28;30002;983;1867;-60
2021/10/18 01:58:57;;;;;;;;;;;;;;;5.60;95.50;97550.84;30002;983;1867;-59
2021/10/18 01:59:29;;;;;;;;;;;;;;;5.61;95.65;97557.88;30002;983;1880;-61
2021/10/18 02:00:00;;;;;;;;;;;;;;;5.62;95.57;97551.41;30002;983;1876;-60
2021/10/18 02:00:30;;;;;;;;;;;;;;;5.62;95.54;97551.41;30002;983;1880;-59
2021/10/18 02:01:03;;;;;;;;;;;;;;;5.63;95.74;97555.75;30002;983;1876;-60
2021/10/18 02:01:34;;;;;;;;;;;;;;;5.64;95.58;97552.00;30002;983;1881;-59
2021/10/18 02:02:04;;;;;;;;;;;;;;;5.62;95.34;97552.22;30002;982;1863;-60
2021/10/18 02:02:35;;;;;;;;;;;;;;;5.60;95.42;97550.84;30002;982;1872;-61
2021/10/18 02:03:06;;;;;;;;;;;;;;;5.59;95.40;97551.91;30002;982;1876;-59
2021/10/18 02:03:37;;;;;;;;;;;;;;;5.60;95.75;97550.84;30002;985;1881;-61
2021/10/18 02:04:08;;;;;;;;;;;;;;;5.63;95.58;97550.34;30002;982;1864;-59
2021/10/18 02:04:39;;;;;;;;;;;;;;;5.62;95.72;97543.34;30002;984;1863;-60
2021/10/18 02:05:10;;;;;;;;;;;;;;;5.63;95.44;97550.34;30002;982;1881;-60
2021/10/18 02:05:40;;;;;;;;;;;;;;;5.62;95.42;97552.22;30002;983;1876;-60
2021/10/18 02:06:13;;;;;;;;;;;;;;;5.63;95.41;97542.28;30002;987;1872;-59
2021/10/18 02:06:44;;;;;;;;;;;;;;;5.59;95.69;97552.72;30002;983;1880;-60
2021/10/18 02:07:15;;;;;;;;;;;;;;;5.60;95.37;97556.22;30002;983;1876;-59
2021/10/18 02:07:46;;;;;;;;;;;;;;;5.59;95.62;97557.28;30002;983;1880;-58
2021/10/18 02:08:17;;;;;;;;;;;;;;;5.59;95.19;97554.59;30002;983;1876;-58
2021/10/18 02:08:47;;;;;;;;;;;;;;;5.59;95.45;97552.72;30002;983;1827;-58
2021/10/18 02:09:18;;;;;;;;;;;;;;;5.58;95.47;97558.34;30003;778;1015;-59
2021/10/18 02:09:50;;;;;;;;;;;;;;;5.57;95.33;97556.72;30002;982;1881;-58
2021/10/18 02:10:21;;;;;;;;;;;;;;;5.56;95.29;97555.09;30002;982;1876;-59
2021/10/18 02:10:52;;;;;;;;;;;;;;;5.56;95.60;97544.31;30002;982;1881;-57
2021/10/18 02:11:23;;;;;;;;;;;;;;;5.57;95.65;97545.94;30002;982;1877;-58
2021/10/18 02:11:53;;;;;;;;;;;;;;;5.58;95.73;97550.28;30002;982;1881;-59
2021/10/18 02:12:24;;;;;;;;;;;;;;;5.59;95.70;97543.81;30002;967;1892;-59
2021/10/18 02:12:55;;;;;;;;;;;;;;;5.58;95.69;97536.81;30002;983;1788;-60
2021/10/18 02:13:26;;;;;;;;;;;;;;;5.59;95.80;97543.81;30002;983;1863;-58
2021/10/18 02:13:56;;;;;;;;;;;;;;;5.59;95.91;97544.66;30002;983;1871;-60
2021/10/18 02:14:27;;;;;;;;;;;;;;;5.61;95.60;97541.72;30002;983;1876;-59
2021/10/18 02:14:58;;;;;;;;;;;;;;;5.62;95.56;97538.78;30002;983;1880;-60
2021/10/18 02:15:29;;;;;;;;;;;;;;;5.62;95.64;97537.97;30002;983;1876;-60
2021/10/18 02:16:00;;;;;;;;;;;;;;;5.63;95.69;97539.59;30002;983;1880;-60
2021/10/18 02:16:30;;;;;;;;;;;;;;;5.64;95.70;97530.44;30002;983;1876;-59
2021/10/18 02:17:01;;;;;;;;;;;;;;;5.64;95.59;97536.66;30002;986;1863;-60
2021/10/18 02:17:32;;;;;;;;;;;;;;;5.64;95.63;97541.22;30002;982;1877;-60
2021/10/18 02:18:03;;;;;;;;;;;;;;;5.64;95.60;97549.28;30002;982;1881;-59
2021/10/18 02:18:34;;;;;;;;;;;;;;;5.63;95.53;97540.41;30002;982;1885;-60
2021/10/18 02:19:05;;;;;;;;;;;;;;;5.64;95.32;97543.91;30002;982;1881;-60
2021/10/18 02:19:36;;;;;;;;;;;;;;;5.63;95.48;97544.97;30002;983;1884;-60
2021/10/18 02:20:08;;;;;;;;;;;;;;;5.62;95.40;97546.03;30002;983;1880;-60
2021/10/18 02:20:39;;;;;;;;;;;;;;;5.61;95.39;97547.09;30002;983;1884;-60
2021/10/18 02:21:09;;;;;;;;;;;;;;;5.63;95.69;97555.75;30002;983;1880;-60
2021/10/18 02:21:40;;;;;;;;;;;;;;;5.61;95.67;97547.91;30002;957;1898;-61
2021/10/18 02:22:12;;;;;;;;;;;;;;;5.61;95.80;97541.72;30002;983;1872;-60
2021/10/18 02:22:43;;;;;;;;;;;;;;;5.61;95.43;97550.59;30002;983;1885;-60
2021/10/18 02:23:14;;;;;;;;;;;;;;;5.62;95.70;97552.22;30002;983;1880;-60
2021/10/18 02:23:44;;;;;;;;;;;;;;;5.64;95.46;97546.59;30002;983;1872;-60
2021/10/18 02:24:15;;;;;;;;;;;;;;;5.64;95.67;97547.41;30002;983;1872;-59
2021/10/18 02:24:46;;;;;;;;;;;;;;;5.65;95.73;97548.25;30002;982;1885;-59
2021/10/18 02:25:17;;;;;;;;;;;;;;;5.65;95.71;97542.84;30002;982;1881;-60
2021/10/18 02:25:47;;;;;;;;;;;;;;;5.65;95.39;97542.84;30002;982;1885;-60
2021/10/18 02:26:18;;;;;;;;;;;;;;;5.64;95.59;97542.03;30002;982;1881;-59
2021/10/18 02:26:49;;;;;;;;;;;;;;;5.64;95.67;97544.72;30002;982;1885;-59
2021/10/18 02:27:20;;;;;;;;;;;;;;;5.64;95.64;97549.28;30002;983;1880;-59
2021/10/18 02:27:50;;;;;;;;;;;;;;;5.63;95.76;97544.97;30001;983;1884;-59
2021/10/18 02:28:22;;;;;;;;;;;;;;;5.62;95.54;97543.34;30001;983;1867;-59
2021/10/18 02:28:52;;;;;;;;;;;;;;;5.62;95.48;97543.34;30002;983;1876;-59
2021/10/18 02:29:23;;;;;;;;;;;;;;;5.63;95.70;97539.59;30001;983;1880;-60
2021/10/18 02:29:54;;;;;;;;;;;;;;;5.61;95.42;97544.41;30001;983;1885;-59
2021/10/18 02:30:25;;;;;;;;;;;;;;;5.62;95.95;97537.97;30001;983;1880;-60
2021/10/18 02:30:56;;;;;;;;;;;;;;;5.62;95.48;97543.34;30001;983;1872;-59
2021/10/18 02:31:27;;;;;;;;;;;;;;;5.64;95.74;97546.59;30001;983;1872;-59
2021/10/18 02:31:58;;;;;;;;;;;;;;;5.64;95.57;97543.91;30001;983;1885;-60
2021/10/18 02:32:28;;;;;;;;;;;;;;;5.64;95.72;97542.03;30001;982;1881;-60
2021/10/18 02:32:59;;;;;;;;;;;;;;;5.63;95.39;97545.78;30001;982;1885;-59
2021/10/18 02:33:30;;;;;;;;;;;;;;;5.63;95.57;97545.78;30001;982;1881;-59
2021/10/18 02:34:01;;;;;;;;;;;;;;;5.65;95.49;97542.84;30001;982;1885;-60
2021/10/18 02:34:32;;;;;;;;;;;;;;;5.67;95.45;97546.13;30001;982;1868;-59
2021/10/18 02:35:05;;;;;;;;;;;;;;;5.67;95.54;97532.66;30001;983;1876;-60
2021/10/18 02:35:36;;;;;;;;;;;;;;;5.69;95.58;97541.31;30001;983;1880;-60
2021/10/18 02:36:07;;;;;;;;;;;;;;;5.69;95.69;97533.22;30001;983;1885;-59
2021/10/18 02:36:38;;;;;;;;;;;;;;;5.68;95.62;97539.66;30001;983;1880;-59
2021/10/18 02:37:08;;;;;;;;;;;;;;;5.67;95.66;97541.56;30001;983;1885;-62
2021/10/18 02:37:39;;;;;;;;;;;;;;;5.66;95.54;97539.09;30001;983;1880;-60
2021/10/18 02:38:10;;;;;;;;;;;;;;;5.65;95.37;97534.78;30001;983;1885;-60
2021/10/18 02:38:41;;;;;;;;;;;;;;;5.64;95.58;97531.25;30001;983;1881;-59
2021/10/18 02:39:12;;;;;;;;;;;;;;;5.65;95.31;97524.00;30001;983;1885;-62
2021/10/18 02:39:43;;;;;;;;;;;;;;;5.65;95.35;97529.38;30001;982;1867;-60
2021/10/18 02:40:14;;;;;;;;;;;;;;;5.62;95.48;97527.19;30001;982;1876;-60
2021/10/18 02:40:44;;;;;;;;;;;;;;;5.62;95.47;97521.81;30001;982;1881;-60
2021/10/18 02:41:15;;;;;;;;;;;;;;;5.63;95.58;97518.06;30001;982;1872;-59
2021/10/18 02:41:46;;;;;;;;;;;;;;;5.62;95.59;97519.09;30001;982;1872;-59
2021/10/18 02:42:17;;;;;;;;;;;;;;;5.61;95.28;97521.00;30001;983;1884;-59
2021/10/18 02:42:47;;;;;;;;;;;;;;;5.62;95.37;97522.63;30001;983;1880;-60
2021/10/18 02:43:18;;;;;;;;;;;;;;;5.62;95.70;97519.09;30001;983;1871;-59
2021/10/18 02:43:50;;;;;;;;;;;;;;;5.62;95.46;97527.19;30001;983;1872;-61
2021/10/18 02:44:20;;;;;;;;;;;;;;;5.63;95.60;97531.50;30001;983;1872;-60
2021/10/18 02:44:51;;;;;;;;;;;;;;;5.62;95.54;97528.00;30001;983;1872;-60
2021/10/18 02:45:22;;;;;;;;;;;;;;;5.63;95.46;97528.81;30001;983;1885;-59
2021/10/18 02:45:53;;;;;;;;;;;;;;;5.63;95.67;97535.03;30001;983;1881;-59
2021/10/18 02:46:24;;;;;;;;;;;;;;;5.64;95.51;97530.44;30001;982;1871;-60
2021/10/18 02:46:54;;;;;;;;;;;;;;;5.64;95.61;97536.66;30001;982;1871;-60
2021/10/18 02:47:25;;;;;;;;;;;;;;;5.64;95.30;97530.44;30001;982;1885;-60
2021/10/18 02:47:56;;;;;;;;;;;;;;;5.63;95.73;97535.03;30001;982;1881;-60
2021/10/18 02:48:27;;;;;;;;;;;;;;;5.64;95.33;97535.84;30001;982;1885;-60